createdAt,value
2023-10-26T00:00:43.575Z,17.22
2023-10-26T00:03:10.387Z,17.22
2023-10-26T00:05:37.197Z,17.39
2023-10-26T00:08:03.960Z,17.79
2023-10-26T00:10:32.913Z,16.30
2023-10-26T00:13:01.769Z,17.58
2023-10-26T00:15:33.224Z,17.06
2023-10-26T00:17:59.778Z,16.99
2023-10-26T00:20:26.328Z,17.09
2023-10-26T00:22:52.819Z,17.27
2023-10-26T00:25:19.411Z,17.73
2023-10-26T00:27:45.920Z,16.94
2023-10-26T00:30:12.975Z,17.59
2023-10-26T00:32:40.703Z,18.00
2023-10-26T00:35:07.918Z,17.98
2023-10-26T00:37:34.438Z,16.92
2023-10-26T00:40:01.079Z,17.58
2023-10-26T00:42:29.957Z,17.77
2023-10-26T00:44:58.794Z,16.85
2023-10-26T00:47:27.097Z,17.30
2023-10-26T00:49:54.603Z,17.68
2023-10-26T00:52:21.964Z,17.98
2023-10-26T00:54:48.584Z,17.78
2023-10-26T00:57:17.670Z,17.74
2023-10-26T00:59:45.339Z,17.81
2023-10-26T01:02:14.708Z,18.13
2023-10-26T01:04:41.837Z,17.32
2023-10-26T01:07:10.639Z,17.34
2023-10-26T01:09:39.415Z,17.63
2023-10-26T01:12:06.347Z,17.79
2023-10-26T01:14:33.019Z,17.82
2023-10-26T01:16:59.571Z,17.20
2023-10-26T01:19:43.173Z,17.61
2023-10-26T01:22:10.514Z,18.07
2023-10-26T01:24:37.761Z,18.50
2023-10-26T01:27:05.601Z,18.50
2023-10-26T01:29:32.716Z,18.48
2023-10-26T01:31:59.427Z,18.19
2023-10-26T01:34:28.781Z,17.01
2023-10-26T01:36:55.385Z,17.08
2023-10-26T01:39:22.010Z,17.22
2023-10-26T01:41:50.860Z,17.13
2023-10-26T01:44:17.378Z,17.27
2023-10-26T01:46:43.931Z,17.22
2023-10-26T01:49:11.614Z,17.33
2023-10-26T01:51:38.084Z,17.11
2023-10-26T01:54:04.790Z,17.25
2023-10-26T01:56:32.167Z,17.55
2023-10-26T01:58:58.990Z,17.26
2023-10-26T02:01:25.666Z,16.76
2023-10-26T02:03:52.522Z,16.89
2023-10-26T02:06:19.376Z,16.82
2023-10-26T02:08:46.006Z,17.16
2023-10-26T02:11:12.589Z,16.83
2023-10-26T02:13:41.114Z,17.66
2023-10-26T02:16:07.965Z,16.93
2023-10-26T02:18:34.659Z,17.32
2023-10-26T02:21:01.848Z,17.82
2023-10-26T02:23:29.105Z,17.66
2023-10-26T02:25:55.649Z,18.01
2023-10-26T02:28:22.337Z,17.83
2023-10-26T02:30:48.978Z,17.54
2023-10-26T02:33:15.634Z,17.50
2023-10-26T02:35:42.314Z,17.53
2023-10-26T02:38:08.837Z,17.58
2023-10-26T02:40:38.772Z,17.72
2023-10-26T02:43:05.596Z,17.98
2023-10-26T02:45:34.344Z,17.35
2023-10-26T02:48:01.062Z,17.42
2023-10-26T02:50:29.946Z,17.53
2023-10-26T02:52:56.443Z,17.56
2023-10-26T02:55:24.805Z,17.21
2023-10-26T02:57:51.531Z,17.49
2023-10-26T03:00:18.765Z,17.43
2023-10-26T03:02:45.403Z,17.97
2023-10-26T03:05:11.948Z,17.98
2023-10-26T03:07:38.444Z,17.82
2023-10-26T03:10:07.901Z,17.61
2023-10-26T03:12:34.426Z,17.22
2023-10-26T03:15:01.422Z,17.54
2023-10-26T03:17:28.162Z,17.46
2023-10-26T03:19:57.061Z,17.40
2023-10-26T03:22:23.618Z,17.07
2023-10-26T03:24:51.441Z,17.36
2023-10-26T03:27:18.173Z,17.33
2023-10-26T03:29:44.733Z,17.39
2023-10-26T03:32:11.213Z,17.49
2023-10-26T03:34:37.698Z,17.42
2023-10-26T03:37:04.440Z,17.35
2023-10-26T03:39:31.251Z,17.04
2023-10-26T03:41:57.819Z,16.96
2023-10-26T03:44:24.451Z,16.95
2023-10-26T03:46:53.237Z,16.53
2023-10-26T03:49:20.539Z,17.11
2023-10-26T03:51:50.634Z,17.20
2023-10-26T03:54:19.503Z,17.49
2023-10-26T03:56:48.432Z,17.27
2023-10-26T03:59:14.943Z,17.30
2023-10-26T04:01:41.498Z,17.24
2023-10-26T04:04:08.594Z,17.39
2023-10-26T04:06:35.093Z,17.08
2023-10-26T04:09:01.616Z,17.34
2023-10-26T04:11:28.190Z,17.08
2023-10-26T04:14:00.454Z,16.71
2023-10-26T04:16:27.061Z,17.32
2023-10-26T04:18:54.325Z,17.32
2023-10-26T04:21:21.063Z,16.72
2023-10-26T04:23:47.603Z,16.72
2023-10-26T04:26:14.261Z,16.09
2023-10-26T04:28:51.533Z,16.56
2023-10-26T04:31:21.596Z,16.51
2023-10-26T04:33:49.536Z,16.20
2023-10-26T04:36:16.539Z,15.43
2023-10-26T04:38:43.039Z,16.17
2023-10-26T04:41:09.562Z,15.86
2023-10-26T04:43:36.172Z,15.34
2023-10-26T04:46:02.810Z,16.08
2023-10-26T04:48:31.677Z,16.63
2023-10-26T04:50:58.338Z,17.02
2023-10-26T04:53:24.928Z,17.05
2023-10-26T04:55:51.417Z,16.87
2023-10-26T04:58:17.966Z,17.21
2023-10-26T05:00:44.741Z,17.42
2023-10-26T05:03:11.486Z,17.09
2023-10-26T05:05:38.056Z,17.17
2023-10-26T05:08:05.104Z,17.23
2023-10-26T05:10:33.970Z,16.68
2023-10-26T05:13:00.458Z,16.87
2023-10-26T05:15:27.053Z,16.82
2023-10-26T05:17:53.676Z,17.29
2023-10-26T05:20:22.568Z,17.28
2023-10-26T05:22:56.519Z,16.78
2023-10-26T05:25:25.330Z,16.45
2023-10-26T05:27:51.910Z,16.70
2023-10-26T05:30:20.853Z,16.45
2023-10-26T05:32:49.769Z,16.22
2023-10-26T05:35:16.549Z,16.10
2023-10-26T05:38:11.780Z,16.56
2023-10-26T05:40:38.373Z,16.31
2023-10-26T05:43:05.020Z,15.97
2023-10-26T05:45:38.313Z,15.85
2023-10-26T05:48:06.761Z,15.86
2023-10-26T05:50:35.992Z,16.41
2023-10-26T05:53:04.408Z,16.41
2023-10-26T05:55:31.174Z,15.76
2023-10-26T05:57:57.842Z,15.83
2023-10-26T06:00:29.748Z,15.65
2023-10-26T06:02:56.279Z,15.61
2023-10-26T06:05:24.788Z,14.65
2023-10-26T06:08:30.992Z,15.27
2023-10-26T06:10:59.288Z,14.65
2023-10-26T06:13:26.038Z,15.29
2023-10-26T06:19:13.743Z,16.40
2023-10-26T06:30:43.904Z,15.23
2023-10-26T06:35:51.728Z,14.70
2023-10-26T06:38:18.329Z,15.22
2023-10-26T06:40:46.499Z,15.91
2023-10-26T06:43:13.042Z,15.63
2023-10-26T06:45:39.883Z,15.40
2023-10-26T06:48:07.070Z,15.53
2023-10-26T06:50:34.065Z,15.49
2023-10-26T06:53:00.566Z,15.53
2023-10-26T06:55:30.700Z,15.93
2023-10-26T06:58:00.270Z,16.00
2023-10-26T07:00:27.248Z,15.89
2023-10-26T07:02:56.081Z,16.11
2023-10-26T07:05:22.725Z,15.89
2023-10-26T07:07:49.388Z,15.83
2023-10-26T07:10:16.418Z,16.22
2023-10-26T07:12:44.018Z,16.38
2023-10-26T07:15:13.421Z,16.26
2023-10-26T07:17:40.140Z,16.09
2023-10-26T07:20:09.071Z,16.35
2023-10-26T07:22:36.535Z,16.10
2023-10-26T07:25:06.350Z,16.42
2023-10-26T07:27:33.177Z,16.16
2023-10-26T07:30:02.772Z,16.71
2023-10-26T07:32:29.398Z,16.65
2023-10-26T07:34:59.913Z,16.70
2023-10-26T07:37:26.496Z,16.91
2023-10-26T07:39:53.046Z,17.10
2023-10-26T07:42:39.584Z,17.09
2023-10-26T07:45:07.353Z,17.09
2023-10-26T07:47:34.492Z,17.17
2023-10-26T07:50:03.737Z,17.23
2023-10-26T07:52:30.319Z,17.09
2023-10-26T07:54:56.891Z,17.53
2023-10-26T07:57:23.481Z,17.52
2023-10-26T07:59:49.970Z,17.63
2023-10-26T08:02:16.725Z,17.52
2023-10-26T08:04:45.888Z,17.45
2023-10-26T08:07:15.007Z,17.66
2023-10-26T08:09:43.817Z,17.58
2023-10-26T08:12:11.705Z,18.00
2023-10-26T08:16:05.928Z,17.56
2023-10-26T08:17:26.746Z,18.13
2023-10-26T08:19:54.165Z,18.07
2023-10-26T08:22:23.629Z,17.84
2023-10-26T08:24:55.024Z,17.76
2023-10-26T08:27:23.501Z,18.16
2023-10-26T08:29:51.362Z,17.92
2023-10-26T08:32:22.875Z,17.65
2023-10-26T08:34:52.716Z,17.55
2023-10-26T08:37:19.226Z,17.85
2023-10-26T08:39:45.778Z,17.30
2023-10-26T08:42:14.415Z,18.08
2023-10-26T08:44:44.783Z,17.99
2023-10-26T08:47:15.849Z,17.54
2023-10-26T08:49:46.148Z,17.48
2023-10-26T08:52:17.553Z,17.72
2023-10-26T08:54:44.262Z,17.60
2023-10-26T08:57:13.434Z,17.47
2023-10-26T08:59:40.152Z,17.65
2023-10-26T09:02:07.113Z,17.23
2023-10-26T09:04:34.025Z,17.34
2023-10-26T09:07:00.653Z,17.25
2023-10-26T09:09:29.556Z,17.65
2023-10-26T09:12:09.267Z,17.90
2023-10-26T09:14:35.789Z,18.45
2023-10-26T09:17:02.373Z,17.96
2023-10-26T09:19:38.621Z,18.79
2023-10-26T09:22:05.259Z,18.93
2023-10-26T09:24:31.773Z,18.69
2023-10-26T09:27:01.080Z,18.51
2023-10-26T09:29:42.951Z,18.52
2023-10-26T09:32:10.430Z,18.54
2023-10-26T09:34:47.144Z,18.53
2023-10-26T09:37:14.043Z,18.68
2023-10-26T09:39:44.507Z,18.68
2023-10-26T09:42:12.561Z,18.55
2023-10-26T09:44:39.785Z,18.30
2023-10-26T09:47:07.741Z,18.06
2023-10-26T09:49:34.720Z,18.15
2023-10-26T09:52:01.509Z,18.78
2023-10-26T09:54:31.488Z,19.08
2023-10-26T09:57:17.716Z,18.97
2023-10-26T09:59:44.469Z,19.09
2023-10-26T10:02:16.069Z,18.70
2023-10-26T10:04:43.460Z,18.65
2023-10-26T10:07:10.425Z,18.59
2023-10-26T10:10:01.990Z,19.04
2023-10-26T10:12:30.839Z,19.48
2023-10-26T10:15:36.234Z,18.96
2023-10-26T10:18:03.067Z,19.15
2023-10-26T10:20:31.543Z,19.20
2023-10-26T10:23:01.564Z,19.10
2023-10-26T10:26:05.716Z,19.17
2023-10-26T10:28:42.166Z,19.14
2023-10-26T10:31:10.687Z,18.74
2023-10-26T10:33:40.336Z,18.82
2023-10-26T10:36:09.885Z,19.17
2023-10-26T10:38:39.632Z,19.00
2023-10-26T10:41:11.635Z,19.14
2023-10-26T10:43:46.288Z,18.80
2023-10-26T10:46:27.897Z,19.23
2023-10-26T10:49:02.375Z,18.95
2023-10-26T10:51:30.986Z,19.16
2023-10-26T10:54:06.076Z,19.37
2023-10-26T10:56:42.718Z,19.28
2023-10-26T10:59:23.264Z,18.17
2023-10-26T11:01:51.302Z,18.77
2023-10-26T11:04:18.591Z,17.97
2023-10-26T11:06:45.632Z,18.52
2023-10-26T11:09:30.706Z,18.03
2023-10-26T11:12:08.817Z,19.02
2023-10-26T11:14:37.595Z,18.66
2023-10-26T11:17:04.312Z,18.55
2023-10-26T11:19:36.580Z,18.93
2023-10-26T11:22:04.972Z,18.18
2023-10-26T11:24:32.453Z,17.98
2023-10-26T11:27:19.014Z,18.29
2023-10-26T11:29:46.733Z,18.36
2023-10-26T11:32:19.871Z,18.90
2023-10-26T11:35:08.404Z,19.24
2023-10-26T11:37:40.300Z,19.03
2023-10-26T11:40:08.463Z,19.15
2023-10-26T11:42:50.445Z,18.77
2023-10-26T11:45:19.351Z,18.30
2023-10-26T11:47:49.573Z,18.97
2023-10-26T11:50:23.524Z,19.44
2023-10-26T11:52:51.047Z,19.48
2023-10-26T11:55:20.679Z,18.59
2023-10-26T11:57:47.402Z,18.82
2023-10-26T12:00:17.336Z,18.79
2023-10-26T12:02:44.028Z,18.93
2023-10-26T12:05:22.529Z,18.41
2023-10-26T12:07:49.374Z,18.46
2023-10-26T12:10:18.087Z,17.98
2023-10-26T12:12:49.779Z,18.05
2023-10-26T12:15:16.416Z,18.06
2023-10-26T12:17:43.015Z,18.64
2023-10-26T12:20:12.204Z,18.52
2023-10-26T12:22:40.033Z,17.77
2023-10-26T12:25:08.903Z,19.19
2023-10-26T12:28:20.725Z,19.34
2023-10-26T12:30:22.496Z,19.48
2023-10-26T12:32:49.018Z,18.48
2023-10-26T12:35:15.515Z,18.98
2023-10-26T12:37:42.057Z,18.70
2023-10-26T12:40:09.463Z,18.44
2023-10-26T12:42:37.008Z,18.81
2023-10-26T12:45:04.063Z,18.92
2023-10-26T12:47:30.629Z,18.75
2023-10-26T12:49:57.216Z,18.43
2023-10-26T12:52:23.758Z,18.38
2023-10-26T12:54:50.297Z,18.26
2023-10-26T12:57:17.221Z,18.63
2023-10-26T12:59:43.753Z,19.03
2023-10-26T13:02:12.485Z,19.05
2023-10-26T13:04:41.466Z,18.91
2023-10-26T13:07:08.191Z,19.45
2023-10-26T13:09:34.782Z,18.47
2023-10-26T13:12:01.321Z,18.40
2023-10-26T13:14:27.819Z,18.20
2023-10-26T13:16:57.827Z,17.90
2023-10-26T13:19:26.114Z,19.05
2023-10-26T13:21:55.171Z,19.24
2023-10-26T13:24:21.774Z,18.78
2023-10-26T13:26:48.330Z,18.15
2023-10-26T13:29:14.817Z,17.76
2023-10-26T13:31:41.427Z,18.51
2023-10-26T13:34:08.626Z,18.42
2023-10-26T13:36:35.481Z,18.18
2023-10-26T13:39:04.948Z,17.99
2023-10-26T13:41:34.075Z,17.79
2023-10-26T13:44:00.945Z,18.44
2023-10-26T13:46:29.887Z,18.59
2023-10-26T13:48:57.000Z,18.17
2023-10-26T13:51:23.847Z,18.76
2023-10-26T13:53:50.494Z,19.08
2023-10-26T13:56:17.074Z,19.28
2023-10-26T13:58:45.834Z,19.03
2023-10-26T14:01:13.564Z,19.37
2023-10-26T14:03:40.281Z,19.22
2023-10-26T14:06:08.816Z,19.69
2023-10-26T14:08:35.431Z,19.33
2023-10-26T14:11:01.959Z,19.22
2023-10-26T14:13:29.608Z,18.45
2023-10-26T14:15:56.102Z,18.95
2023-10-26T14:18:22.818Z,18.60
2023-10-26T14:20:49.369Z,18.67
2023-10-26T14:23:15.845Z,18.82
2023-10-26T14:25:42.924Z,18.89
2023-10-26T14:28:09.456Z,19.14
2023-10-26T14:30:36.010Z,18.86
2023-10-26T14:33:04.992Z,18.70
2023-10-26T14:35:31.537Z,18.65
2023-10-26T14:38:00.357Z,18.83
2023-10-26T14:40:30.276Z,19.02
2023-10-26T14:42:57.341Z,19.01
2023-10-26T14:45:26.681Z,18.50
2023-10-26T14:47:53.714Z,18.55
2023-10-26T14:50:20.342Z,18.27
2023-10-26T14:52:46.963Z,19.03
2023-10-26T14:55:13.801Z,19.07
2023-10-26T14:57:40.670Z,19.24
2023-10-26T15:00:08.268Z,19.30
2023-10-26T15:02:35.170Z,18.52
2023-10-26T15:05:01.833Z,18.70
2023-10-26T15:07:28.356Z,18.85
2023-10-26T15:10:22.203Z,18.91
2023-10-26T15:12:41.892Z,18.58
2023-10-26T15:15:08.726Z,18.98
2023-10-26T15:17:37.593Z,18.69
2023-10-26T15:20:04.742Z,18.92
2023-10-26T15:22:31.295Z,18.86
2023-10-26T15:24:58.012Z,18.89
2023-10-26T15:27:24.595Z,18.69
2023-10-26T15:29:57.785Z,18.78
2023-10-26T15:32:24.311Z,18.48
2023-10-26T15:34:51.072Z,19.02
2023-10-26T15:37:19.764Z,18.67
2023-10-26T15:39:46.841Z,19.26
2023-10-26T15:42:16.339Z,19.07
2023-10-26T15:44:46.075Z,19.00
2023-10-26T15:47:14.836Z,18.33
2023-10-26T15:49:45.330Z,19.16
2023-10-26T15:52:12.068Z,18.86
2023-10-26T15:54:38.686Z,18.41
2023-10-26T15:57:07.737Z,18.53
2023-10-26T15:59:34.282Z,18.66
2023-10-26T16:02:00.920Z,18.84
2023-10-26T16:04:29.419Z,18.36
2023-10-26T16:06:55.982Z,18.77
2023-10-26T16:09:22.482Z,18.73
2023-10-26T16:11:49.006Z,18.55
2023-10-26T16:14:15.565Z,18.44
2023-10-26T16:16:42.181Z,18.63
2023-10-26T16:19:10.776Z,18.49
2023-10-26T16:21:37.429Z,18.45
2023-10-26T16:24:04.219Z,18.94
2023-10-26T16:26:30.768Z,18.57
2023-10-26T16:28:57.376Z,18.99
2023-10-26T16:31:23.901Z,19.01
2023-10-26T16:33:50.519Z,18.73
2023-10-26T16:36:19.720Z,18.96
2023-10-26T16:38:46.303Z,19.25
2023-10-26T16:41:12.875Z,19.55
2023-10-26T16:43:39.372Z,19.44
2023-10-26T16:46:06.016Z,19.41
2023-10-26T16:48:33.245Z,19.09
2023-10-26T16:51:01.703Z,19.51
2023-10-26T16:53:31.900Z,18.86
2023-10-26T16:56:00.358Z,19.22
2023-10-26T16:58:26.799Z,19.13
2023-10-26T17:00:53.452Z,19.00
2023-10-26T17:03:20.470Z,18.58
2023-10-26T17:05:47.177Z,18.90
2023-10-26T17:08:13.806Z,19.04
2023-10-26T17:10:41.776Z,18.81
2023-10-26T17:13:11.239Z,18.46
2023-10-26T17:15:38.023Z,18.91
2023-10-26T17:18:04.759Z,18.72
2023-10-26T17:20:31.442Z,18.84
2023-10-26T17:22:58.004Z,18.24
2023-10-26T17:25:24.665Z,18.95
2023-10-26T17:27:52.028Z,18.51
2023-10-26T17:30:18.828Z,18.93
2023-10-26T17:32:47.943Z,18.90
2023-10-26T17:35:14.579Z,18.91
2023-10-26T17:37:41.214Z,18.31
2023-10-26T17:40:08.177Z,18.98
2023-10-26T17:42:34.813Z,18.66
2023-10-26T17:45:01.470Z,18.73
2023-10-26T17:47:29.020Z,19.24
2023-10-26T17:49:55.721Z,19.52
2023-10-26T17:52:22.400Z,19.13
2023-10-26T17:54:49.082Z,19.09
2023-10-26T17:57:15.748Z,18.78
2023-10-26T17:59:42.484Z,18.24
2023-10-26T18:02:11.950Z,18.97
2023-10-26T18:04:39.358Z,18.38
2023-10-26T18:07:06.666Z,18.54
2023-10-26T18:09:36.317Z,18.18
2023-10-26T18:12:06.331Z,18.76
2023-10-26T18:14:32.941Z,18.90
2023-10-26T18:17:02.203Z,18.70
2023-10-26T18:19:28.998Z,18.91
2023-10-26T18:21:58.478Z,18.64
2023-10-26T18:24:25.097Z,18.46
2023-10-26T18:26:51.648Z,18.41
2023-10-26T18:29:18.276Z,18.63
2023-10-26T18:31:44.898Z,19.05
2023-10-26T18:34:17.315Z,19.55
2023-10-26T18:36:44.238Z,19.06
2023-10-26T18:39:11.551Z,19.53
2023-10-26T18:41:38.284Z,19.21
2023-10-26T18:44:05.182Z,18.89
2023-10-26T18:46:32.127Z,18.44
2023-10-26T18:48:59.116Z,18.65
2023-10-26T18:51:28.396Z,18.65
2023-10-26T18:53:56.875Z,18.49
2023-10-26T18:56:23.943Z,18.50
2023-10-26T18:58:51.364Z,18.88
2023-10-26T19:01:18.272Z,18.15
2023-10-26T19:03:58.045Z,18.32
2023-10-26T19:06:32.169Z,18.53
2023-10-26T19:08:59.791Z,18.34
2023-10-26T19:11:29.369Z,18.38
2023-10-26T19:13:56.606Z,18.45
2023-10-26T19:16:26.511Z,18.11
2023-10-26T19:18:53.500Z,17.54
2023-10-26T19:21:20.332Z,17.49
2023-10-26T19:23:46.986Z,17.89
2023-10-26T19:26:14.178Z,17.31
2023-10-26T19:28:40.948Z,17.27
2023-10-26T19:31:13.757Z,17.65
2023-10-26T19:33:43.386Z,18.16
2023-10-26T19:36:10.842Z,17.94
2023-10-26T19:38:37.885Z,17.56
2023-10-26T19:41:04.894Z,17.18
2023-10-26T19:43:31.620Z,17.08
2023-10-26T19:45:58.410Z,17.33
2023-10-26T19:48:25.525Z,17.13
2023-10-26T19:50:52.305Z,17.14
2023-10-26T19:53:19.010Z,17.01
2023-10-26T19:55:45.663Z,17.67
2023-10-26T19:58:12.501Z,17.84
2023-10-26T20:00:39.403Z,17.07
2023-10-26T20:03:06.227Z,16.88
2023-10-26T20:05:32.848Z,17.20
2023-10-26T20:07:59.603Z,16.95
2023-10-26T20:10:26.376Z,17.43
2023-10-26T20:12:53.137Z,17.73
2023-10-26T20:15:19.897Z,17.39
2023-10-26T20:17:46.774Z,17.50
2023-10-26T20:20:13.899Z,17.62
2023-10-26T20:22:41.061Z,17.84
2023-10-26T20:25:10.332Z,17.55
2023-10-26T20:27:39.066Z,18.04
2023-10-26T20:30:06.690Z,17.79
2023-10-26T20:32:35.429Z,18.48
2023-10-26T20:35:03.124Z,18.31
2023-10-26T20:37:30.023Z,17.49
2023-10-26T20:39:57.013Z,17.85
2023-10-26T20:42:27.983Z,17.74
2023-10-26T20:44:57.052Z,17.62
2023-10-26T20:47:23.842Z,18.07
2023-10-26T20:49:53.607Z,18.00
2023-10-26T20:52:20.561Z,18.46
2023-10-26T20:54:47.612Z,18.44
2023-10-26T20:57:14.238Z,18.03
2023-10-26T20:59:40.893Z,18.07
2023-10-26T21:02:07.561Z,18.02
2023-10-26T21:04:34.205Z,17.98
2023-10-26T21:07:00.951Z,17.56
2023-10-26T21:09:28.052Z,17.79
2023-10-26T21:11:54.664Z,17.85
2023-10-26T21:14:21.250Z,17.81
2023-10-26T21:16:48.355Z,17.90
2023-10-26T21:19:15.402Z,17.70
2023-10-26T21:21:42.064Z,17.76
2023-10-26T21:24:09.276Z,17.72
2023-10-26T21:26:38.346Z,18.19
2023-10-26T21:29:05.218Z,18.16
2023-10-26T21:31:31.913Z,18.15
2023-10-26T21:33:58.543Z,18.22
2023-10-26T21:36:25.469Z,18.20
2023-10-26T21:38:52.055Z,18.15
2023-10-26T21:41:20.974Z,18.16
2023-10-26T21:43:47.579Z,18.13
2023-10-26T21:46:14.294Z,17.53
2023-10-26T21:48:42.401Z,17.99
2023-10-26T21:51:12.330Z,18.63
2023-10-26T21:53:39.456Z,18.01
2023-10-26T21:56:06.284Z,17.74
2023-10-26T21:58:32.862Z,17.53
2023-10-26T22:00:59.746Z,17.53
2023-10-26T22:03:26.347Z,17.78
2023-10-26T22:05:52.962Z,17.69
2023-10-26T22:08:19.959Z,18.01
2023-10-26T22:10:49.155Z,18.15
2023-10-26T22:13:15.679Z,18.41
2023-10-26T22:15:42.208Z,18.12
2023-10-26T22:18:11.523Z,18.37
2023-10-26T22:20:38.169Z,18.37
2023-10-26T22:23:05.359Z,17.79
2023-10-26T22:25:32.303Z,18.16
2023-10-26T22:27:58.889Z,18.18
2023-10-26T22:30:25.625Z,18.21
2023-10-26T22:32:52.245Z,18.41
2023-10-26T22:35:18.896Z,18.40
2023-10-26T22:37:45.572Z,17.88
2023-10-26T22:40:12.625Z,18.20
2023-10-26T22:42:39.257Z,18.07
2023-10-26T22:45:06.351Z,18.21
2023-10-26T22:47:32.919Z,18.36
2023-10-26T22:49:59.589Z,18.45
2023-10-26T22:52:26.145Z,18.21
2023-10-26T22:54:52.771Z,18.49
2023-10-26T22:57:19.296Z,17.37
2023-10-26T22:59:49.134Z,18.28
2023-10-26T23:02:15.681Z,17.63
2023-10-26T23:04:42.620Z,17.77
2023-10-26T23:07:09.345Z,18.30
2023-10-26T23:09:36.063Z,18.08
2023-10-26T23:12:02.987Z,17.78
2023-10-26T23:14:31.276Z,18.20
2023-10-26T23:16:58.313Z,17.46
2023-10-26T23:19:25.283Z,17.44
2023-10-26T23:21:51.992Z,17.94
2023-10-26T23:24:18.608Z,17.60
2023-10-26T23:26:45.143Z,17.81
2023-10-26T23:29:11.748Z,17.37
2023-10-26T23:31:38.259Z,17.34
2023-10-26T23:34:04.912Z,17.31
2023-10-26T23:36:31.492Z,17.33
2023-10-26T23:38:58.179Z,17.39
2023-10-26T23:41:24.708Z,17.86
2023-10-26T23:43:51.487Z,18.27
2023-10-26T23:46:19.705Z,17.78
2023-10-26T23:48:48.531Z,17.98
2023-10-26T23:51:15.264Z,18.33
2023-10-26T23:53:41.754Z,18.16
2023-10-26T23:56:10.859Z,17.75
2023-10-26T23:58:37.347Z,17.77
